sensor_id;sensor_type;location;lat;lon;timestamp;pressure;altitude;pressure_sealevel;temperature;humidity
7075;BME280;3578;51.568;6.932;2023-07-20T00:01:46;53195.97;;;-144.14;100.00
7075;BME280;3578;51.568;6.932;2023-07-20T00:04:13;53167.91;;;-144.14;100.00
7075;BME280;3578;51.568;6.932;2023-07-20T00:06:40;53181.94;;;-144.14;100.00
7075;BME280;3578;51.568;6.932;2023-07-20T00:09:09;53201.97;;;-144.14;100.00
7075;BME280;3578;51.568;6.932;2023-07-20T00:11:37;53193.97;;;-144.14;100.00
7075;BME280;3578;51.568;6.932;2023-07-20T00:14:04;53133.84;;;-144.14;100.00
7075;BME280;3578;51.568;6.932;2023-07-20T00:16:31;53157.88;;;-144.14;100.00
7075;BME280;3578;51.568;6.932;2023-07-20T00:18:58;53157.88;;;-144.14;100.00
7075;BME280;3578;51.568;6.932;2023-07-20T00:21:25;53121.81;;;-144.14;100.00
7075;BME280;3578;51.568;6.932;2023-07-20T00:23:52;53139.84;;;-144.14;100.00
7075;BME280;3578;51.568;6.932;2023-07-20T00:26:21;53185.94;;;-144.14;100.00
7075;BME280;3578;51.568;6.932;2023-07-20T00:28:50;53161.91;;;-144.14;100.00
7075;BME280;3578;51.568;6.932;2023-07-20T00:31:17;53137.84;;;-144.14;100.00
7075;BME280;3578;51.568;6.932;2023-07-20T00:33:44;53141.84;;;-144.14;100.00
7075;BME280;3578;51.568;6.932;2023-07-20T00:36:11;53133.84;;;-144.14;100.00
7075;BME280;3578;51.568;6.932;2023-07-20T00:38:38;53161.91;;;-144.14;100.00
7075;BME280;3578;51.568;6.932;2023-07-20T00:41:05;53117.81;;;-144.14;100.00
7075;BME280;3578;51.568;6.932;2023-07-20T00:43:33;53151.88;;;-144.14;100.00
7075;BME280;3578;51.568;6.932;2023-07-20T00:46:00;53143.84;;;-144.14;100.00
7075;BME280;3578;51.568;6.932;2023-07-20T00:48:28;53125.81;;;-144.14;100.00
7075;BME280;3578;51.568;6.932;2023-07-20T00:50:56;53107.78;;;-144.14;100.00
7075;BME280;3578;51.568;6.932;2023-07-20T00:53:23;53109.78;;;-144.14;100.00
7075;BME280;3578;51.568;6.932;2023-07-20T00:55:50;53097.75;;;-144.14;100.00
7075;BME280;3578;51.568;6.932;2023-07-20T00:58:17;53105.78;;;-144.14;100.00
7075;BME280;3578;51.568;6.932;2023-07-20T01:00:46;53097.75;;;-144.14;100.00
7075;BME280;3578;51.568;6.932;2023-07-20T01:03:13;53113.78;;;-144.14;100.00
7075;BME280;3578;51.568;6.932;2023-07-20T01:05:46;53105.78;;;-144.14;100.00
7075;BME280;3578;51.568;6.932;2023-07-20T01:08:27;53127.81;;;-144.14;100.00
7075;BME280;3578;51.568;6.932;2023-07-20T01:11:06;53085.75;;;-144.14;100.00
7075;BME280;3578;51.568;6.932;2023-07-20T01:13:37;53105.78;;;-144.14;100.00
7075;BME280;3578;51.568;6.932;2023-07-20T01:16:06;53089.75;;;-144.14;100.00
7075;BME280;3578;51.568;6.932;2023-07-20T01:18:32;53099.78;;;-144.14;100.00
7075;BME280;3578;51.568;6.932;2023-07-20T01:21:03;53033.63;;;-144.14;100.00
7075;BME280;3578;51.568;6.932;2023-07-20T01:30:03;53017.59;;;-144.14;100.00
7075;BME280;3578;51.568;6.932;2023-07-20T01:32:34;53025.63;;;-144.14;100.00
7075;BME280;3578;51.568;6.932;2023-07-20T01:35:02;53019.59;;;-144.14;100.00
7075;BME280;3578;51.568;6.932;2023-07-20T01:37:30;53057.69;;;-144.14;100.00
7075;BME280;3578;51.568;6.932;2023-07-20T01:39:59;53021.63;;;-144.14;100.00
7075;BME280;3578;51.568;6.932;2023-07-20T01:42:27;53031.63;;;-144.14;100.00
7075;BME280;3578;51.568;6.932;2023-07-20T01:44:54;53037.66;;;-144.14;100.00
7075;BME280;3578;51.568;6.932;2023-07-20T01:47:21;53057.69;;;-144.14;100.00
7075;BME280;3578;51.568;6.932;2023-07-20T01:49:49;53073.72;;;-144.14;100.00
7075;BME280;3578;51.568;6.932;2023-07-20T01:52:16;53109.78;;;-144.14;100.00
7075;BME280;3578;51.568;6.932;2023-07-20T01:54:43;53121.81;;;-144.14;100.00
7075;BME280;3578;51.568;6.932;2023-07-20T01:57:10;53077.72;;;-144.14;100.00
7075;BME280;3578;51.568;6.932;2023-07-20T01:59:37;53121.81;;;-144.14;100.00
7075;BME280;3578;51.568;6.932;2023-07-20T02:02:04;53119.81;;;-144.14;100.00
7075;BME280;3578;51.568;6.932;2023-07-20T02:04:31;53111.78;;;-144.14;100.00
7075;BME280;3578;51.568;6.932;2023-07-20T02:06:59;53165.91;;;-144.14;100.00
7075;BME280;3578;51.568;6.932;2023-07-20T02:09:26;53121.81;;;-144.14;100.00
7075;BME280;3578;51.568;6.932;2023-07-20T02:11:53;53145.84;;;-144.14;100.00
7075;BME280;3578;51.568;6.932;2023-07-20T02:14:20;53145.84;;;-144.14;100.00
7075;BME280;3578;51.568;6.932;2023-07-20T02:16:48;53157.88;;;-144.14;100.00
7075;BME280;3578;51.568;6.932;2023-07-20T02:19:17;53119.81;;;-144.14;100.00
7075;BME280;3578;51.568;6.932;2023-07-20T02:21:44;53125.81;;;-144.14;100.00
7075;BME280;3578;51.568;6.932;2023-07-20T02:24:13;53115.81;;;-144.14;100.00
7075;BME280;3578;51.568;6.932;2023-07-20T02:26:40;53129.81;;;-144.14;100.00
7075;BME280;3578;51.568;6.932;2023-07-20T02:29:08;53125.81;;;-144.14;100.00
7075;BME280;3578;51.568;6.932;2023-07-20T02:31:37;53121.81;;;-144.14;100.00
7075;BME280;3578;51.568;6.932;2023-07-20T02:34:05;53103.78;;;-144.14;100.00
7075;BME280;3578;51.568;6.932;2023-07-20T02:36:32;53125.81;;;-144.14;100.00
7075;BME280;3578;51.568;6.932;2023-07-20T02:38:59;53063.69;;;-144.14;100.00
7075;BME280;3578;51.568;6.932;2023-07-20T02:41:32;53081.72;;;-144.14;100.00
7075;BME280;3578;51.568;6.932;2023-07-20T02:44:00;53055.69;;;-144.14;100.00
7075;BME280;3578;51.568;6.932;2023-07-20T02:46:29;53111.78;;;-144.14;100.00
7075;BME280;3578;51.568;6.932;2023-07-20T02:48:56;53129.81;;;-144.14;100.00
7075;BME280;3578;51.568;6.932;2023-07-20T02:51:23;53123.81;;;-144.14;100.00
7075;BME280;3578;51.568;6.932;2023-07-20T02:53:50;53129.81;;;-144.14;100.00
7075;BME280;3578;51.568;6.932;2023-07-20T02:56:17;53105.78;;;-144.14;100.00
7075;BME280;3578;51.568;6.932;2023-07-20T02:58:45;53103.78;;;-144.14;100.00
7075;BME280;3578;51.568;6.932;2023-07-20T03:01:12;53135.84;;;-144.14;100.00
7075;BME280;3578;51.568;6.932;2023-07-20T03:03:41;53107.78;;;-144.14;100.00
7075;BME280;3578;51.568;6.932;2023-07-20T03:06:12;53113.78;;;-144.14;100.00
7075;BME280;3578;51.568;6.932;2023-07-20T03:08:40;53145.84;;;-144.14;100.00
7075;BME280;3578;51.568;6.932;2023-07-20T03:11:13;53085.75;;;-144.14;100.00
7075;BME280;3578;51.568;6.932;2023-07-20T03:13:41;53075.72;;;-144.14;100.00
7075;BME280;3578;51.568;6.932;2023-07-20T03:16:10;53113.78;;;-144.14;100.00
7075;BME280;3578;51.568;6.932;2023-07-20T03:18:38;53103.78;;;-144.14;100.00
7075;BME280;3578;51.568;6.932;2023-07-20T03:21:05;53127.81;;;-144.14;100.00
7075;BME280;3578;51.568;6.932;2023-07-20T03:23:33;53057.69;;;-144.14;100.00
7075;BME280;3578;51.568;6.932;2023-07-20T03:26:00;53005.59;;;-144.14;100.00
7075;BME280;3578;51.568;6.932;2023-07-20T03:28:27;53061.69;;;-144.14;100.00
7075;BME280;3578;51.568;6.932;2023-07-20T03:30:54;53021.63;;;-144.14;100.00
7075;BME280;3578;51.568;6.932;2023-07-20T03:33:26;53013.59;;;-144.14;100.00
7075;BME280;3578;51.568;6.932;2023-07-20T03:35:53;53073.72;;;-144.14;100.00
7075;BME280;3578;51.568;6.932;2023-07-20T03:38:21;53089.75;;;-144.14;100.00
7075;BME280;3578;51.568;6.932;2023-07-20T03:40:53;53103.78;;;-144.14;100.00
7075;BME280;3578;51.568;6.932;2023-07-20T03:43:20;53065.69;;;-144.14;100.00
7075;BME280;3578;51.568;6.932;2023-07-20T03:45:47;53035.63;;;-144.14;100.00
7075;BME280;3578;51.568;6.932;2023-07-20T03:48:15;53079.72;;;-144.14;100.00
7075;BME280;3578;51.568;6.932;2023-07-20T03:50:45;53049.66;;;-144.14;100.00
7075;BME280;3578;51.568;6.932;2023-07-20T03:53:13;53021.63;;;-144.14;100.00
7075;BME280;3578;51.568;6.932;2023-07-20T03:55:41;53067.69;;;-144.14;100.00
7075;BME280;3578;51.568;6.932;2023-07-20T03:58:08;53021.63;;;-144.14;100.00
7075;BME280;3578;51.568;6.932;2023-07-20T04:00:35;53073.72;;;-144.14;100.00
7075;BME280;3578;51.568;6.932;2023-07-20T04:03:02;53085.75;;;-144.14;100.00
7075;BME280;3578;51.568;6.932;2023-07-20T04:05:29;53025.63;;;-144.14;100.00
7075;BME280;3578;51.568;6.932;2023-07-20T04:07:58;53049.66;;;-144.14;100.00
7075;BME280;3578;51.568;6.932;2023-07-20T04:10:25;53021.63;;;-144.14;100.00
7075;BME280;3578;51.568;6.932;2023-07-20T04:12:52;53039.66;;;-144.14;100.00
7075;BME280;3578;51.568;6.932;2023-07-20T04:15:19;53049.66;;;-144.14;100.00
7075;BME280;3578;51.568;6.932;2023-07-20T04:17:46;53085.75;;;-144.14;100.00
7075;BME280;3578;51.568;6.932;2023-07-20T04:20:13;53061.69;;;-144.14;100.00
7075;BME280;3578;51.568;6.932;2023-07-20T04:22:40;53035.63;;;-144.14;100.00
7075;BME280;3578;51.568;6.932;2023-07-20T04:25:08;53035.63;;;-144.14;100.00
7075;BME280;3578;51.568;6.932;2023-07-20T04:27:36;53049.66;;;-144.14;100.00
7075;BME280;3578;51.568;6.932;2023-07-20T04:30:06;53035.63;;;-144.14;100.00
7075;BME280;3578;51.568;6.932;2023-07-20T04:32:33;53003.56;;;-144.14;100.00
7075;BME280;3578;51.568;6.932;2023-07-20T04:35:00;53029.63;;;-144.14;100.00
7075;BME280;3578;51.568;6.932;2023-07-20T04:37:27;53027.63;;;-144.14;100.00
7075;BME280;3578;51.568;6.932;2023-07-20T04:39:54;53015.59;;;-144.14;100.00
7075;BME280;3578;51.568;6.932;2023-07-20T04:42:22;53057.69;;;-144.14;100.00
7075;BME280;3578;51.568;6.932;2023-07-20T04:44:49;53091.75;;;-144.14;100.00
7075;BME280;3578;51.568;6.932;2023-07-20T04:47:16;53105.78;;;-144.14;100.00
7075;BME280;3578;51.568;6.932;2023-07-20T04:49:43;53083.72;;;-144.14;100.00
7075;BME280;3578;51.568;6.932;2023-07-20T04:52:10;53109.78;;;-144.14;100.00
7075;BME280;3578;51.568;6.932;2023-07-20T04:54:37;53049.66;;;-144.14;100.00
7075;BME280;3578;51.568;6.932;2023-07-20T04:57:11;53101.78;;;-144.14;100.00
7075;BME280;3578;51.568;6.932;2023-07-20T04:59:39;53077.72;;;-144.14;100.00
7075;BME280;3578;51.568;6.932;2023-07-20T05:02:06;53029.63;;;-144.14;100.00
7075;BME280;3578;51.568;6.932;2023-07-20T05:04:33;53077.72;;;-144.14;100.00
7075;BME280;3578;51.568;6.932;2023-07-20T05:07:00;53097.75;;;-144.14;100.00
7075;BME280;3578;51.568;6.932;2023-07-20T05:09:27;53081.72;;;-144.14;100.00
7075;BME280;3578;51.568;6.932;2023-07-20T05:11:54;53085.75;;;-144.14;100.00
7075;BME280;3578;51.568;6.932;2023-07-20T05:14:21;53101.78;;;-144.14;100.00
7075;BME280;3578;51.568;6.932;2023-07-20T05:16:49;53097.75;;;-144.14;100.00
7075;BME280;3578;51.568;6.932;2023-07-20T05:19:16;53093.75;;;-144.14;100.00
7075;BME280;3578;51.568;6.932;2023-07-20T05:21:43;53123.81;;;-144.14;100.00
7075;BME280;3578;51.568;6.932;2023-07-20T05:24:10;53129.81;;;-144.14;100.00
7075;BME280;3578;51.568;6.932;2023-07-20T05:26:37;53135.84;;;-144.14;100.00
7075;BME280;3578;51.568;6.932;2023-07-20T05:29:04;53145.84;;;-144.14;100.00
7075;BME280;3578;51.568;6.932;2023-07-20T05:31:31;53135.84;;;-144.14;100.00
7075;BME280;3578;51.568;6.932;2023-07-20T05:33:59;53173.91;;;-144.14;100.00
7075;BME280;3578;51.568;6.932;2023-07-20T05:36:26;53115.81;;;-144.14;100.00
7075;BME280;3578;51.568;6.932;2023-07-20T05:38:53;53121.81;;;-144.14;100.00
7075;BME280;3578;51.568;6.932;2023-07-20T05:41:20;53117.81;;;-144.14;100.00
7075;BME280;3578;51.568;6.932;2023-07-20T05:43:48;53163.91;;;-144.14;100.00
7075;BME280;3578;51.568;6.932;2023-07-20T05:46:15;53185.94;;;-144.14;100.00
7075;BME280;3578;51.568;6.932;2023-07-20T05:48:42;53244.06;;;-144.14;100.00
7075;BME280;3578;51.568;6.932;2023-07-20T05:51:11;53268.09;;;-144.14;100.00
7075;BME280;3578;51.568;6.932;2023-07-20T05:53:38;53228.03;;;-144.14;100.00
7075;BME280;3578;51.568;6.932;2023-07-20T05:56:05;53238.03;;;-144.14;100.00
7075;BME280;3578;51.568;6.932;2023-07-20T05:58:35;53224.03;;;-144.14;100.00
7075;BME280;3578;51.568;6.932;2023-07-20T06:01:03;53214.00;;;-144.14;100.00
7075;BME280;3578;51.568;6.932;2023-07-20T06:03:31;53187.94;;;-144.14;100.00
7075;BME280;3578;51.568;6.932;2023-07-20T06:05:59;53185.94;;;-144.14;100.00
7075;BME280;3578;51.568;6.932;2023-07-20T06:08:28;53193.97;;;-144.14;100.00
7075;BME280;3578;51.568;6.932;2023-07-20T06:10:55;53201.97;;;-144.14;100.00
7075;BME280;3578;51.568;6.932;2023-07-20T06:13:23;53208.00;;;-144.14;100.00
7075;BME280;3578;51.568;6.932;2023-07-20T06:15:50;53216.00;;;-144.14;100.00
7075;BME280;3578;51.568;6.932;2023-07-20T06:18:17;53302.19;;;-144.14;100.00
7075;BME280;3578;51.568;6.932;2023-07-20T06:20:49;53342.25;;;-144.14;100.00
7075;BME280;3578;51.568;6.932;2023-07-20T06:23:17;53342.25;;;-144.14;100.00
7075;BME280;3578;51.568;6.932;2023-07-20T06:25:45;53356.28;;;-144.14;100.00
7075;BME280;3578;51.568;6.932;2023-07-20T06:28:13;53338.25;;;-144.14;100.00
7075;BME280;3578;51.568;6.932;2023-07-20T06:30:40;53396.38;;;-144.14;100.00
7075;BME280;3578;51.568;6.932;2023-07-20T06:33:07;53386.34;;;-144.14;100.00
7075;BME280;3578;51.568;6.932;2023-07-20T06:35:34;53454.50;;;-144.14;98.75
7075;BME280;3578;51.568;6.932;2023-07-20T06:38:01;53464.50;;;-144.14;99.15
7075;BME280;3578;51.568;6.932;2023-07-20T06:40:29;53470.53;;;-144.14;99.34
7075;BME280;3578;51.568;6.932;2023-07-20T06:42:58;53546.69;;;-144.14;98.49
7075;BME280;3578;51.568;6.932;2023-07-20T06:45:25;53608.81;;;-144.14;96.91
7075;BME280;3578;51.568;6.932;2023-07-20T06:47:52;53650.91;;;-144.14;96.85
7075;BME280;3578;51.568;6.932;2023-07-20T06:50:19;53713.06;;;-144.14;96.29
7075;BME280;3578;51.568;6.932;2023-07-20T06:52:46;53721.06;;;-144.14;95.83
7075;BME280;3578;51.568;6.932;2023-07-20T06:55:14;53733.09;;;-144.14;94.80
7075;BME280;3578;51.568;6.932;2023-07-20T06:57:41;53747.13;;;-144.14;94.67
7075;BME280;3578;51.568;6.932;2023-07-20T07:00:11;54228.22;;;-144.14;86.89
7075;BME280;3578;51.568;6.932;2023-07-20T07:02:39;54657.25;;;-144.14;81.07
7075;BME280;3578;51.568;6.932;2023-07-20T07:05:06;54412.66;;;-144.14;80.83
7075;BME280;3578;51.568;6.932;2023-07-20T07:07:33;54234.22;;;-144.14;82.75
7075;BME280;3578;51.568;6.932;2023-07-20T07:10:01;54087.88;;;-144.14;86.45
7075;BME280;3578;51.568;6.932;2023-07-20T07:12:30;53889.44;;;-144.14;90.11
7075;BME280;3578;51.568;6.932;2023-07-20T07:14:57;53843.34;;;-144.14;90.72
7075;BME280;3578;51.568;6.932;2023-07-20T07:17:27;53843.34;;;-144.14;90.03
7075;BME280;3578;51.568;6.932;2023-07-20T07:19:54;53841.34;;;-144.14;91.25
7075;BME280;3578;51.568;6.932;2023-07-20T07:22:22;53899.47;;;-144.14;90.57
7075;BME280;3578;51.568;6.932;2023-07-20T07:24:49;53995.69;;;-144.14;89.21
7075;BME280;3578;51.568;6.932;2023-07-20T07:27:16;54047.78;;;-144.14;85.80
7075;BME280;3578;51.568;6.932;2023-07-20T07:29:43;54097.91;;;-144.14;84.37
7075;BME280;3578;51.568;6.932;2023-07-20T07:32:10;54150.03;;;-144.14;86.05
7075;BME280;3578;51.568;6.932;2023-07-20T07:34:39;54154.03;;;-144.14;83.91
7075;BME280;3578;51.568;6.932;2023-07-20T07:37:06;54224.19;;;-144.14;83.16
7075;BME280;3578;51.568;6.932;2023-07-20T07:39:33;54328.44;;;-144.14;80.25
7075;BME280;3578;51.568;6.932;2023-07-20T07:42:00;54372.56;;;-144.14;82.85
7075;BME280;3578;51.568;6.932;2023-07-20T07:44:27;54388.59;;;-144.14;80.63
7075;BME280;3578;51.568;6.932;2023-07-20T07:46:54;54380.56;;;-144.14;81.40
7075;BME280;3578;51.568;6.932;2023-07-20T07:49:20;54382.56;;;-144.14;84.40
7075;BME280;3578;51.568;6.932;2023-07-20T07:51:49;54286.34;;;-144.14;84.79
7075;BME280;3578;51.568;6.932;2023-07-20T07:54:17;54244.25;;;-144.14;83.61
7075;BME280;3578;51.568;6.932;2023-07-20T07:56:44;54067.84;;;-144.14;84.80
7075;BME280;3578;51.568;6.932;2023-07-20T07:59:11;54003.69;;;-144.14;87.96
7075;BME280;3578;51.568;6.932;2023-07-20T08:01:38;53963.59;;;-144.14;89.39
7075;BME280;3578;51.568;6.932;2023-07-20T08:04:05;53893.44;;;-144.14;92.11
7075;BME280;3578;51.568;6.932;2023-07-20T08:06:33;53871.41;;;-144.14;92.88
7075;BME280;3578;51.568;6.932;2023-07-20T08:09:02;53815.28;;;-144.14;92.30
7075;BME280;3578;51.568;6.932;2023-07-20T08:11:29;53835.31;;;-144.14;90.57
7075;BME280;3578;51.568;6.932;2023-07-20T08:13:59;53951.56;;;-144.14;88.62
7075;BME280;3578;51.568;6.932;2023-07-20T08:16:26;53937.53;;;-144.14;89.00
7075;BME280;3578;51.568;6.932;2023-07-20T08:18:53;53993.66;;;-144.14;90.12
7075;BME280;3578;51.568;6.932;2023-07-20T08:21:20;53991.66;;;-144.14;85.22
7075;BME280;3578;51.568;6.932;2023-07-20T08:23:47;54019.72;;;-144.14;85.25
7075;BME280;3578;51.568;6.932;2023-07-20T08:26:16;53971.63;;;-144.14;83.75
7075;BME280;3578;51.568;6.932;2023-07-20T08:28:44;53985.66;;;-144.14;86.35
7075;BME280;3578;51.568;6.932;2023-07-20T08:31:14;53947.56;;;-144.14;87.08
7075;BME280;3578;51.568;6.932;2023-07-20T08:33:41;53907.47;;;-144.14;86.10
7075;BME280;3578;51.568;6.932;2023-07-20T08:36:08;53987.66;;;-144.14;81.82
7075;BME280;3578;51.568;6.932;2023-07-20T08:38:35;54023.75;;;-144.14;80.48
7075;BME280;3578;51.568;6.932;2023-07-20T08:41:02;54127.97;;;-144.14;82.33
7075;BME280;3578;51.568;6.932;2023-07-20T08:43:30;54184.09;;;-144.14;76.66
7075;BME280;3578;51.568;6.932;2023-07-20T08:45:58;54282.34;;;-144.14;75.80
7075;BME280;3578;51.568;6.932;2023-07-20T08:48:27;54272.31;;;-144.14;78.20
7075;BME280;3578;51.568;6.932;2023-07-20T08:50:55;54312.41;;;-144.14;73.48
7075;BME280;3578;51.568;6.932;2023-07-20T08:53:22;54364.53;;;-144.14;70.57
7075;BME280;3578;51.568;6.932;2023-07-20T08:55:51;54336.47;;;-144.14;73.04
7075;BME280;3578;51.568;6.932;2023-07-20T08:58:18;54372.56;;;-144.14;74.40
7075;BME280;3578;51.568;6.932;2023-07-20T09:00:47;54446.72;;;-144.14;71.51
7075;BME280;3578;51.568;6.932;2023-07-20T09:03:16;54484.81;;;-144.14;70.54
7075;BME280;3578;51.568;6.932;2023-07-20T09:05:43;54516.91;;;-144.14;74.20
7075;BME280;3578;51.568;6.932;2023-07-20T09:08:11;54496.84;;;-144.14;71.68
7075;BME280;3578;51.568;6.932;2023-07-20T09:10:37;54506.88;;;-144.14;74.64
7075;BME280;3578;51.568;6.932;2023-07-20T09:13:04;54561.00;;;-144.14;75.52
7075;BME280;3578;51.568;6.932;2023-07-20T09:15:32;54637.19;;;-144.14;72.91
7075;BME280;3578;51.568;6.932;2023-07-20T09:18:02;54719.38;;;-144.14;71.35
7075;BME280;3578;51.568;6.932;2023-07-20T09:20:31;54749.47;;;-144.14;69.07
7075;BME280;3578;51.568;6.932;2023-07-20T09:22:59;54733.44;;;-144.14;68.02
7075;BME280;3578;51.568;6.932;2023-07-20T09:25:27;54685.31;;;-144.14;65.82
7075;BME280;3578;51.568;6.932;2023-07-20T09:27:55;54629.16;;;-144.14;69.95
7075;BME280;3578;51.568;6.932;2023-07-20T09:30:25;54577.03;;;-144.14;70.96
7075;BME280;3578;51.568;6.932;2023-07-20T09:32:52;54577.03;;;-144.14;70.26
7075;BME280;3578;51.568;6.932;2023-07-20T09:35:22;54601.09;;;-144.14;66.03
7075;BME280;3578;51.568;6.932;2023-07-20T09:37:54;54544.97;;;-144.14;66.83
7075;BME280;3578;51.568;6.932;2023-07-20T09:40:21;54631.16;;;-144.14;67.70
7075;BME280;3578;51.568;6.932;2023-07-20T09:42:48;54675.28;;;-144.14;62.99
7075;BME280;3578;51.568;6.932;2023-07-20T09:45:18;54643.19;;;-144.14;63.43
7075;BME280;3578;51.568;6.932;2023-07-20T09:47:46;54629.16;;;-144.14;63.99
7075;BME280;3578;51.568;6.932;2023-07-20T09:50:13;54631.16;;;-144.14;66.16
7075;BME280;3578;51.568;6.932;2023-07-20T09:52:41;54685.31;;;-144.14;65.57
7075;BME280;3578;51.568;6.932;2023-07-20T09:55:10;54765.50;;;-144.14;61.19
7075;BME280;3578;51.568;6.932;2023-07-20T09:57:38;54889.81;;;-144.14;59.97
7075;BME280;3578;51.568;6.932;2023-07-20T10:00:07;54986.06;;;-144.14;59.10
7075;BME280;3578;51.568;6.932;2023-07-20T10:02:42;54972.03;;;-144.14;58.20
7075;BME280;3578;51.568;6.932;2023-07-20T10:05:13;54829.66;;;-144.14;60.70
7075;BME280;3578;51.568;6.932;2023-07-20T10:07:44;54827.66;;;-144.14;67.83
7075;BME280;3578;51.568;6.932;2023-07-20T10:10:15;54835.69;;;-144.14;59.67
7075;BME280;3578;51.568;6.932;2023-07-20T10:12:47;54869.78;;;-144.14;60.53
7075;BME280;3578;51.568;6.932;2023-07-20T10:15:20;54781.53;;;-144.14;60.41
7075;BME280;3578;51.568;6.932;2023-07-20T10:17:57;54841.69;;;-144.14;57.15
7075;BME280;3578;51.568;6.932;2023-07-20T10:20:27;54781.53;;;-144.14;62.33
7075;BME280;3578;51.568;6.932;2023-07-20T10:22:56;54845.72;;;-144.14;63.05
7075;BME280;3578;51.568;6.932;2023-07-20T10:25:24;54873.78;;;-144.14;58.50
7075;BME280;3578;51.568;6.932;2023-07-20T10:27:51;54905.84;;;-144.14;61.72
7075;BME280;3578;51.568;6.932;2023-07-20T10:30:18;54929.91;;;-144.14;60.62
7075;BME280;3578;51.568;6.932;2023-07-20T10:32:47;54933.94;;;-144.14;54.31
7075;BME280;3578;51.568;6.932;2023-07-20T10:35:16;54951.97;;;-144.14;55.76
7075;BME280;3578;51.568;6.932;2023-07-20T10:37:59;54915.88;;;-144.14;53.69
7075;BME280;3578;51.568;6.932;2023-07-20T10:40:32;54941.94;;;-144.14;64.47
7075;BME280;3578;51.568;6.932;2023-07-20T10:43:04;55004.09;;;-144.14;54.51
7075;BME280;3578;51.568;6.932;2023-07-20T10:45:40;54974.03;;;-144.14;55.36
7075;BME280;3578;51.568;6.932;2023-07-20T10:48:14;54913.88;;;-144.14;68.10
7075;BME280;3578;51.568;6.932;2023-07-20T10:50:43;54897.84;;;-144.14;68.30
7075;BME280;3578;51.568;6.932;2023-07-20T10:53:16;54863.75;;;-144.14;65.75
7075;BME280;3578;51.568;6.932;2023-07-20T10:55:44;54849.72;;;-144.14;58.50
7075;BME280;3578;51.568;6.932;2023-07-20T10:58:13;54937.94;;;-144.14;61.17
7075;BME280;3578;51.568;6.932;2023-07-20T11:01:02;55014.13;;;-144.14;61.81
7075;BME280;3578;51.568;6.932;2023-07-20T11:03:31;55082.31;;;-144.14;54.64
7075;BME280;3578;51.568;6.932;2023-07-20T11:05:58;55124.41;;;-144.14;56.37
7075;BME280;3578;51.568;6.932;2023-07-20T11:08:40;55186.59;;;-144.14;58.28
7075;BME280;3578;51.568;6.932;2023-07-20T11:11:24;55190.59;;;-144.14;50.45
7075;BME280;3578;51.568;6.932;2023-07-20T11:13:56;55192.59;;;-144.14;51.49
7075;BME280;3578;51.568;6.932;2023-07-20T11:16:38;55214.66;;;-144.14;51.04
7075;BME280;3578;51.568;6.932;2023-07-20T11:19:13;55266.78;;;-144.14;53.56
7075;BME280;3578;51.568;6.932;2023-07-20T11:21:42;55280.81;;;-144.14;50.91
7075;BME280;3578;51.568;6.932;2023-07-20T11:24:11;55278.81;;;-144.14;49.40
7075;BME280;3578;51.568;6.932;2023-07-20T11:26:43;55338.97;;;-144.14;48.73
7075;BME280;3578;51.568;6.932;2023-07-20T11:29:11;55298.88;;;-144.14;48.88
7075;BME280;3578;51.568;6.932;2023-07-20T11:31:38;55246.75;;;-144.14;50.26
7075;BME280;3578;51.568;6.932;2023-07-20T11:34:07;55306.91;;;-144.14;47.89
7075;BME280;3578;51.568;6.932;2023-07-20T11:36:34;55280.81;;;-144.14;46.99
7075;BME280;3578;51.568;6.932;2023-07-20T11:39:02;55308.91;;;-144.14;46.42
7075;BME280;3578;51.568;6.932;2023-07-20T11:41:32;55343.00;;;-144.14;48.74
7075;BME280;3578;51.568;6.932;2023-07-20T11:43:59;55419.19;;;-144.14;44.82
7075;BME280;3578;51.568;6.932;2023-07-20T11:46:27;55357.03;;;-144.14;46.67
7075;BME280;3578;51.568;6.932;2023-07-20T11:48:58;55334.97;;;-144.14;47.92
7075;BME280;3578;51.568;6.932;2023-07-20T11:51:28;55375.06;;;-144.14;46.73
7075;BME280;3578;51.568;6.932;2023-07-20T11:53:55;55383.09;;;-144.14;45.73
7075;BME280;3578;51.568;6.932;2023-07-20T11:56:24;55391.13;;;-144.14;45.87
7075;BME280;3578;51.568;6.932;2023-07-20T11:58:55;55421.19;;;-144.14;46.84
7075;BME280;3578;51.568;6.932;2023-07-20T12:01:24;55531.50;;;-144.14;46.63
7075;BME280;3578;51.568;6.932;2023-07-20T12:03:55;55669.88;;;-144.14;48.00
7075;BME280;3578;51.568;6.932;2023-07-20T12:06:24;55724.03;;;-144.14;44.05
7075;BME280;3578;51.568;6.932;2023-07-20T12:08:55;55659.84;;;-144.14;45.61
7075;BME280;3578;51.568;6.932;2023-07-20T12:11:34;55663.84;;;-144.14;47.17
7075;BME280;3578;51.568;6.932;2023-07-20T12:14:03;55645.81;;;-144.14;46.70
7075;BME280;3578;51.568;6.932;2023-07-20T12:16:30;55641.81;;;-144.14;47.99
7075;BME280;3578;51.568;6.932;2023-07-20T12:19:02;55627.75;;;-144.14;47.91
7075;BME280;3578;51.568;6.932;2023-07-20T12:21:29;55687.94;;;-144.14;49.02
7075;BME280;3578;51.568;6.932;2023-07-20T12:23:57;55611.72;;;-144.14;46.08
7075;BME280;3578;51.568;6.932;2023-07-20T12:26:25;55619.75;;;-144.14;46.70
7075;BME280;3578;51.568;6.932;2023-07-20T12:28:52;55561.59;;;-144.14;45.12
7075;BME280;3578;51.568;6.932;2023-07-20T12:31:21;55551.56;;;-144.14;46.46
7075;BME280;3578;51.568;6.932;2023-07-20T12:33:50;55615.72;;;-144.14;46.75
7075;BME280;3578;51.568;6.932;2023-07-20T12:36:17;55681.91;;;-144.14;47.28
7075;BME280;3578;51.568;6.932;2023-07-20T12:38:45;55766.13;;;-144.14;46.28
7075;BME280;3578;51.568;6.932;2023-07-20T12:41:13;55812.28;;;-144.14;44.02
7075;BME280;3578;51.568;6.932;2023-07-20T12:43:40;55860.41;;;-144.14;43.24
7075;BME280;3578;51.568;6.932;2023-07-20T12:46:08;55888.50;;;-144.14;42.70
7075;BME280;3578;51.568;6.932;2023-07-20T12:48:36;55808.25;;;-144.14;44.11
7075;BME280;3578;51.568;6.932;2023-07-20T12:51:06;55774.16;;;-144.14;44.42
7075;BME280;3578;51.568;6.932;2023-07-20T12:53:33;55691.94;;;-144.14;44.28
7075;BME280;3578;51.568;6.932;2023-07-20T12:56:00;55900.53;;;-144.14;44.70
7075;BME280;3578;51.568;6.932;2023-07-20T12:58:28;55944.66;;;-144.14;43.59
7075;BME280;3578;51.568;6.932;2023-07-20T13:00:55;55782.19;;;-144.14;42.54
7075;BME280;3578;51.568;6.932;2023-07-20T13:03:22;55754.09;;;-144.14;44.21
7075;BME280;3578;51.568;6.932;2023-07-20T13:05:50;55820.28;;;-144.14;45.94
7075;BME280;3578;51.568;6.932;2023-07-20T13:08:16;55808.25;;;-144.14;43.14